Time;durP1;ratioP1;P1;durP2;ratioP2;P2;SDS_P1;SDS_P2;PMS_P1;PMS_P2;Temp;Humidity;BMP_temperature;BMP_pressure;BME280_temperature;BME280_humidity;BME280_pressure;Samples;Min_cycle;Max_cycle;Signal;HPM_P1;HPM_P2
2023/07/13 00:01:57;;;;;;;3.53;1.80;;;;;;;;;;4940804;29;20198;-76
2023/07/13 00:04:24;;;;;;;3.50;1.43;;;;;;;;;;4938078;29;20212;-76
2023/07/13 00:06:50;;;;;;;2.33;1.60;;;;;;;;;;4933111;29;20277;-76
2023/07/13 00:09:16;;;;;;;2.17;1.50;;;;;;;;;;4929463;29;20273;-76
2023/07/13 00:11:42;;;;;;;2.03;1.50;;;;;;;;;;4939354;28;20221;-76
2023/07/13 00:14:07;;;;;;;2.50;1.67;;;;;;;;;;4930494;29;20205;-76
2023/07/13 00:16:33;;;;;;;1.80;1.70;;;;;;;;;;4937787;28;20256;-76
2023/07/13 00:19:00;;;;;;;2.53;1.77;;;;;;;;;;4935192;28;20194;-76
2023/07/13 00:21:25;;;;;;;4.67;1.70;;;;;;;;;;4939687;29;20210;-75
2023/07/13 00:23:50;;;;;;;2.30;1.70;;;;;;;;;;4930021;29;20186;-76
2023/07/13 00:26:17;;;;;;;2.67;1.93;;;;;;;;;;4930716;29;20240;-76
2023/07/13 00:28:42;;;;;;;2.73;1.70;;;;;;;;;;4933430;29;20187;-76
2023/07/13 00:31:08;;;;;;;1.80;1.50;;;;;;;;;;4946987;29;20241;-76
2023/07/13 00:33:34;;;;;;;3.20;1.93;;;;;;;;;;4925697;29;20216;-76
2023/07/13 00:35:59;;;;;;;1.63;1.50;;;;;;;;;;4931383;29;20210;-76
2023/07/13 00:38:24;;;;;;;2.53;1.77;;;;;;;;;;4932525;29;20200;-76
2023/07/13 00:40:49;;;;;;;2.40;1.63;;;;;;;;;;4932789;29;20235;-76
2023/07/13 00:43:19;;;;;;;3.53;2.17;;;;;;;;;;4925261;29;20189;-76
2023/07/13 00:45:45;;;;;;;1.73;1.60;;;;;;;;;;4931986;29;20345;-76
2023/07/13 00:48:15;;;;;;;3.63;1.73;;;;;;;;;;4945315;28;20276;-76
2023/07/13 00:50:41;;;;;;;4.17;1.70;;;;;;;;;;4944114;28;20236;-76
2023/07/13 00:53:07;;;;;;;3.63;1.50;;;;;;;;;;4934393;29;20184;-76
2023/07/13 00:55:32;;;;;;;3.73;1.57;;;;;;;;;;4933171;29;20186;-76
2023/07/13 00:57:58;;;;;;;3.33;1.87;;;;;;;;;;4928219;29;20188;-76
2023/07/13 01:00:25;;;;;;;3.83;1.67;;;;;;;;;;4931748;29;20188;-76
2023/07/13 01:02:51;;;;;;;3.57;2.00;;;;;;;;;;4934448;29;20177;-76
2023/07/13 01:05:18;;;;;;;1.77;1.67;;;;;;;;;;4923830;29;20207;-76
2023/07/13 01:07:43;;;;;;;2.77;1.77;;;;;;;;;;4926829;29;20212;-76
2023/07/13 01:10:10;;;;;;;2.67;1.70;;;;;;;;;;4936629;29;20181;-75
2023/07/13 01:12:35;;;;;;;2.63;1.67;;;;;;;;;;4927044;29;20239;-76
2023/07/13 01:15:01;;;;;;;3.70;1.63;;;;;;;;;;4933372;29;20192;-76
2023/07/13 01:17:27;;;;;;;2.27;1.70;;;;;;;;;;4945065;29;20222;-76
2023/07/13 01:19:53;;;;;;;2.07;1.63;;;;;;;;;;4931439;29;20241;-76
2023/07/13 01:22:18;;;;;;;2.00;1.80;;;;;;;;;;4941254;29;20193;-76
2023/07/13 01:24:45;;;;;;;3.13;1.50;;;;;;;;;;4933901;28;20181;-76
2023/07/13 01:27:12;;;;;;;2.80;1.60;;;;;;;;;;4933809;28;20215;-76
2023/07/13 01:29:43;;;;;;;2.30;1.73;;;;;;;;;;4938720;29;20242;-76
2023/07/13 01:32:16;;;;;;;2.67;1.77;;;;;;;;;;4941601;29;20227;-76
2023/07/13 01:34:44;;;;;;;1.70;1.50;;;;;;;;;;4938767;29;20191;-76
2023/07/13 01:37:11;;;;;;;2.10;1.57;;;;;;;;;;4938032;28;20407;-76
2023/07/13 01:39:37;;;;;;;3.53;1.67;;;;;;;;;;4938169;29;20191;-76
2023/07/13 01:42:02;;;;;;;5.23;2.03;;;;;;;;;;4944135;28;20198;-76
2023/07/13 01:44:27;;;;;;;6.50;2.07;;;;;;;;;;4935700;29;20188;-76
2023/07/13 01:46:52;;;;;;;2.73;1.87;;;;;;;;;;4953258;28;20208;-76
2023/07/13 01:49:18;;;;;;;4.80;1.80;;;;;;;;;;4941059;29;20172;-76
2023/07/13 01:51:43;;;;;;;2.67;1.93;;;;;;;;;;4956034;28;20266;-76
2023/07/13 01:54:08;;;;;;;3.10;1.80;;;;;;;;;;4955915;29;20175;-76
2023/07/13 01:56:33;;;;;;;3.17;1.80;;;;;;;;;;4935053;29;20176;-76
2023/07/13 01:58:58;;;;;;;5.33;2.00;;;;;;;;;;4935995;28;20184;-76
2023/07/13 02:01:24;;;;;;;3.43;2.00;;;;;;;;;;4939805;29;20214;-76
2023/07/13 02:03:49;;;;;;;3.40;1.90;;;;;;;;;;4953057;28;20183;-76
2023/07/13 02:06:14;;;;;;;2.23;1.93;;;;;;;;;;4934558;29;20204;-76
2023/07/13 02:08:40;;;;;;;2.17;1.97;;;;;;;;;;4938929;29;20189;-76
2023/07/13 02:11:05;;;;;;;2.07;1.60;;;;;;;;;;4938013;28;20195;-76
2023/07/13 02:13:30;;;;;;;3.13;1.97;;;;;;;;;;4941295;28;20227;-76
2023/07/13 02:15:56;;;;;;;4.20;1.80;;;;;;;;;;4962532;28;20257;-76
2023/07/13 02:18:21;;;;;;;2.53;1.80;;;;;;;;;;4967662;28;20212;-76
2023/07/13 02:20:46;;;;;;;3.37;2.03;;;;;;;;;;4940964;29;20203;-76
2023/07/13 02:23:11;;;;;;;2.20;1.93;;;;;;;;;;4954436;29;20183;-76
2023/07/13 02:25:37;;;;;;;2.47;1.67;;;;;;;;;;4932922;29;20223;-76
2023/07/13 02:28:03;;;;;;;1.80;1.70;;;;;;;;;;4927832;29;20188;-76
2023/07/13 02:30:29;;;;;;;3.00;2.03;;;;;;;;;;4935314;29;20203;-76
2023/07/13 02:32:55;;;;;;;1.87;1.77;;;;;;;;;;4931009;29;20182;-76
2023/07/13 02:35:20;;;;;;;3.03;2.10;;;;;;;;;;4932673;29;20191;-76
2023/07/13 02:37:45;;;;;;;2.13;1.73;;;;;;;;;;4925386;29;20199;-76
2023/07/13 02:40:10;;;;;;;4.97;1.90;;;;;;;;;;4931886;29;20191;-76
2023/07/13 02:42:36;;;;;;;5.90;2.07;;;;;;;;;;4932199;29;20186;-76
2023/07/13 02:45:01;;;;;;;2.80;1.73;;;;;;;;;;4939171;29;20183;-76
2023/07/13 02:47:26;;;;;;;6.57;2.50;;;;;;;;;;4930751;29;20200;-76
2023/07/13 02:49:51;;;;;;;5.03;2.07;;;;;;;;;;4934897;29;20179;-78
2023/07/13 02:52:17;;;;;;;4.43;2.17;;;;;;;;;;4940874;29;20186;-78
2023/07/13 02:54:42;;;;;;;2.87;1.97;;;;;;;;;;4937344;29;20182;-78
2023/07/13 02:57:07;;;;;;;2.80;1.87;;;;;;;;;;4932282;29;20204;-78
2023/07/13 02:59:32;;;;;;;3.27;1.87;;;;;;;;;;4933955;29;20218;-75
2023/07/13 03:01:58;;;;;;;2.20;1.90;;;;;;;;;;4936016;29;20258;-76
2023/07/13 03:04:23;;;;;;;4.53;1.70;;;;;;;;;;4949725;29;20195;-75
2023/07/13 03:06:48;;;;;;;3.33;2.03;;;;;;;;;;4934027;29;20214;-75
2023/07/13 03:09:14;;;;;;;4.60;2.23;;;;;;;;;;4933416;29;20192;-75
2023/07/13 03:11:39;;;;;;;2.20;1.70;;;;;;;;;;4928283;29;20191;-76
2023/07/13 03:14:04;;;;;;;4.10;2.20;;;;;;;;;;4933419;29;20269;-75
2023/07/13 03:16:29;;;;;;;6.93;2.00;;;;;;;;;;4953719;28;20186;-75
2023/07/13 03:18:55;;;;;;;2.17;1.97;;;;;;;;;;4931437;29;20189;-75
2023/07/13 03:21:20;;;;;;;1.77;1.60;;;;;;;;;;4935340;29;20234;-75
2023/07/13 03:23:46;;;;;;;3.73;1.87;;;;;;;;;;4950343;29;20192;-75
2023/07/13 03:26:15;;;;;;;2.77;1.70;;;;;;;;;;4930427;29;20370;-76
2023/07/13 03:28:41;;;;;;;1.80;1.67;;;;;;;;;;4932598;29;20183;-75
2023/07/13 03:31:08;;;;;;;2.90;2.00;;;;;;;;;;4933486;29;20260;-75
2023/07/13 03:33:33;;;;;;;2.43;1.90;;;;;;;;;;4932397;29;20237;-75
2023/07/13 03:35:58;;;;;;;2.37;1.70;;;;;;;;;;4934044;29;20286;-75
2023/07/13 03:38:24;;;;;;;2.80;2.10;;;;;;;;;;4950192;29;20189;-75
2023/07/13 03:40:49;;;;;;;2.63;1.80;;;;;;;;;;4933395;29;20280;-75
2023/07/13 03:43:14;;;;;;;5.03;2.10;;;;;;;;;;4934199;29;20237;-75
2023/07/13 03:45:39;;;;;;;2.63;2.00;;;;;;;;;;4934592;29;20186;-75
2023/07/13 03:48:05;;;;;;;3.93;2.20;;;;;;;;;;4927006;29;20178;-75
2023/07/13 03:50:31;;;;;;;3.53;1.60;;;;;;;;;;4940424;29;20175;-75
2023/07/13 03:52:57;;;;;;;6.00;2.40;;;;;;;;;;4928700;29;20190;-75
2023/07/13 03:55:22;;;;;;;4.20;1.97;;;;;;;;;;4929723;29;20190;-76
2023/07/13 03:57:48;;;;;;;3.00;2.00;;;;;;;;;;4933195;29;20179;-75
2023/07/13 04:00:13;;;;;;;2.07;1.80;;;;;;;;;;4925244;29;20297;-75
2023/07/13 04:02:38;;;;;;;2.70;2.00;;;;;;;;;;4947126;28;20201;-75
2023/07/13 04:05:04;;;;;;;2.23;2.00;;;;;;;;;;4932822;29;20186;-75
2023/07/13 04:07:29;;;;;;;3.33;1.83;;;;;;;;;;4935016;29;20262;-75
2023/07/13 04:09:54;;;;;;;3.03;1.80;;;;;;;;;;4933885;29;20183;-75
2023/07/13 04:12:19;;;;;;;3.07;2.13;;;;;;;;;;4933829;29;20238;-75
2023/07/13 04:14:44;;;;;;;2.73;2.00;;;;;;;;;;4930019;29;20183;-75
2023/07/13 04:17:10;;;;;;;2.53;1.63;;;;;;;;;;4936172;29;20249;-75
2023/07/13 04:19:35;;;;;;;4.83;2.13;;;;;;;;;;4932736;29;20202;-75
2023/07/13 04:22:00;;;;;;;2.07;1.93;;;;;;;;;;4939210;29;20194;-75
2023/07/13 04:24:25;;;;;;;3.37;1.90;;;;;;;;;;4937490;29;20207;-75
2023/07/13 04:26:51;;;;;;;3.80;1.80;;;;;;;;;;4947279;28;20238;-75
2023/07/13 04:29:16;;;;;;;2.77;2.20;;;;;;;;;;4950481;28;20186;-75
2023/07/13 04:31:41;;;;;;;1.83;1.73;;;;;;;;;;4932604;29;20186;-76
2023/07/13 04:34:06;;;;;;;2.77;2.57;;;;;;;;;;4931232;29;20198;-76
2023/07/13 04:36:32;;;;;;;2.57;1.97;;;;;;;;;;4938752;29;20187;-76
2023/07/13 04:38:57;;;;;;;2.73;2.03;;;;;;;;;;4932477;29;20198;-76
2023/07/13 04:41:23;;;;;;;2.13;1.93;;;;;;;;;;4932504;29;20238;-76
2023/07/13 04:43:48;;;;;;;2.30;2.00;;;;;;;;;;4945271;28;20190;-76
2023/07/13 04:46:15;;;;;;;2.30;2.10;;;;;;;;;;4937012;29;20195;-76
2023/07/13 04:48:40;;;;;;;3.73;2.10;;;;;;;;;;4932729;29;20192;-76
2023/07/13 04:51:06;;;;;;;2.70;2.10;;;;;;;;;;4945341;28;20178;-77
2023/07/13 04:53:34;;;;;;;2.57;2.37;;;;;;;;;;4934163;29;20180;-76
2023/07/13 04:55:59;;;;;;;3.80;2.30;;;;;;;;;;4933452;29;20231;-76
2023/07/13 04:58:25;;;;;;;4.47;2.37;;;;;;;;;;4932612;29;20187;-76
2023/07/13 05:00:50;;;;;;;3.07;1.97;;;;;;;;;;4931662;29;20253;-76
2023/07/13 05:03:15;;;;;;;2.20;2.00;;;;;;;;;;4926927;29;20187;-77
2023/07/13 05:05:41;;;;;;;3.00;1.90;;;;;;;;;;4936994;29;20190;-76
2023/07/13 05:08:07;;;;;;;2.30;2.10;;;;;;;;;;4929909;29;20174;-76
2023/07/13 05:10:32;;;;;;;2.93;2.43;;;;;;;;;;4951208;28;20181;-76
2023/07/13 05:12:58;;;;;;;5.47;2.00;;;;;;;;;;4932467;29;20262;-76
2023/07/13 05:15:23;;;;;;;9.27;3.13;;;;;;;;;;4933764;29;20192;-77
2023/07/13 05:17:49;;;;;;;4.60;2.40;;;;;;;;;;4930696;29;20201;-77
2023/07/13 05:20:14;;;;;;;3.10;2.00;;;;;;;;;;4934106;29;20188;-77
2023/07/13 05:22:39;;;;;;;2.20;2.00;;;;;;;;;;4930695;29;20194;-76
2023/07/13 05:25:06;;;;;;;3.37;2.27;;;;;;;;;;4956357;28;20311;-76
2023/07/13 05:27:31;;;;;;;2.37;2.10;;;;;;;;;;4934210;29;20248;-76
2023/07/13 05:29:56;;;;;;;4.50;2.30;;;;;;;;;;4927879;29;20184;-76
2023/07/13 05:32:22;;;;;;;2.30;2.10;;;;;;;;;;4928342;29;20191;-76
2023/07/13 05:34:47;;;;;;;4.13;2.00;;;;;;;;;;4926440;29;20217;-76
2023/07/13 05:37:12;;;;;;;2.50;2.10;;;;;;;;;;4924468;29;20252;-76
2023/07/13 05:39:37;;;;;;;4.77;2.27;;;;;;;;;;4932516;29;20260;-76
2023/07/13 05:42:03;;;;;;;3.67;2.23;;;;;;;;;;4931616;29;20180;-76
2023/07/13 05:44:28;;;;;;;4.47;2.07;;;;;;;;;;4928030;29;20194;-76
2023/07/13 05:46:55;;;;;;;2.00;1.80;;;;;;;;;;4931478;29;20216;-76
2023/07/13 05:49:21;;;;;;;3.77;2.40;;;;;;;;;;4929905;29;20187;-76
2023/07/13 05:51:46;;;;;;;2.03;1.67;;;;;;;;;;4921374;29;20178;-76
2023/07/13 05:54:11;;;;;;;3.17;2.00;;;;;;;;;;4933359;29;20182;-76
2023/07/13 05:56:36;;;;;;;4.07;2.10;;;;;;;;;;4936645;29;20271;-76
2023/07/13 05:59:02;;;;;;;1.97;1.77;;;;;;;;;;4930188;29;20267;-76
2023/07/13 06:01:27;;;;;;;2.97;2.00;;;;;;;;;;4934430;29;20615;-75
2023/07/13 06:03:52;;;;;;;3.70;2.10;;;;;;;;;;4930909;29;20209;-76
2023/07/13 06:06:17;;;;;;;3.60;2.10;;;;;;;;;;4948244;29;20205;-76
2023/07/13 06:08:43;;;;;;;5.13;2.60;;;;;;;;;;4931998;29;20196;-75
2023/07/13 06:11:13;;;;;;;4.60;2.30;;;;;;;;;;4925988;29;20185;-76
2023/07/13 06:13:38;;;;;;;4.23;1.80;;;;;;;;;;4927851;29;20197;-76
2023/07/13 06:16:04;;;;;;;4.33;1.53;;;;;;;;;;4933517;29;20196;-76
2023/07/13 06:18:29;;;;;;;4.70;2.37;;;;;;;;;;4941808;29;20190;-76
2023/07/13 06:20:55;;;;;;;5.90;2.37;;;;;;;;;;4936690;29;20184;-75
2023/07/13 06:23:20;;;;;;;2.70;1.50;;;;;;;;;;4931712;29;20186;-75
2023/07/13 06:25:45;;;;;;;4.70;1.83;;;;;;;;;;4931036;29;20235;-76
2023/07/13 06:28:10;;;;;;;4.60;1.90;;;;;;;;;;4931479;29;20181;-76
2023/07/13 06:30:37;;;;;;;2.83;1.60;;;;;;;;;;4936856;29;20262;-76
2023/07/13 06:33:03;;;;;;;3.67;1.70;;;;;;;;;;4932763;29;20178;-74
2023/07/13 06:35:28;;;;;;;2.47;1.80;;;;;;;;;;4932281;29;20188;-74
2023/07/13 06:37:53;;;;;;;2.93;1.53;;;;;;;;;;4928896;29;20189;-71
2023/07/13 06:40:18;;;;;;;2.17;1.63;;;;;;;;;;4927443;29;20193;-71
2023/07/13 06:42:43;;;;;;;5.37;1.50;;;;;;;;;;4933758;29;20216;-73
2023/07/13 06:45:09;;;;;;;5.47;1.70;;;;;;;;;;4935895;29;20213;-74
2023/07/13 06:47:34;;;;;;;1.87;1.43;;;;;;;;;;4924726;29;20274;-71
2023/07/13 06:50:00;;;;;;;2.47;1.70;;;;;;;;;;4932408;29;20281;-72
2023/07/13 06:52:25;;;;;;;1.90;1.37;;;;;;;;;;4936147;29;20182;-71
2023/07/13 06:54:50;;;;;;;2.30;2.03;;;;;;;;;;4951562;29;20347;-72
2023/07/13 06:57:15;;;;;;;2.47;2.07;;;;;;;;;;4934730;29;20178;-72
2023/07/13 06:59:40;;;;;;;1.97;1.40;;;;;;;;;;4928435;29;20184;-72
2023/07/13 07:02:06;;;;;;;2.50;1.80;;;;;;;;;;4938079;29;20256;-71
2023/07/13 07:04:31;;;;;;;2.93;1.50;;;;;;;;;;4925486;29;20191;-72
2023/07/13 07:06:56;;;;;;;2.77;1.40;;;;;;;;;;4949185;29;20219;-73
2023/07/13 07:09:21;;;;;;;1.50;1.40;;;;;;;;;;4929312;29;20222;-73
2023/07/13 07:11:46;;;;;;;3.83;1.60;;;;;;;;;;4938568;29;20183;-72
2023/07/13 07:14:12;;;;;;;6.03;1.93;;;;;;;;;;4928053;29;20206;-72
2023/07/13 07:16:37;;;;;;;3.80;2.00;;;;;;;;;;4948292;29;20198;-72
2023/07/13 07:19:02;;;;;;;3.30;1.50;;;;;;;;;;4926075;29;20189;-71
2023/07/13 07:21:27;;;;;;;1.70;1.60;;;;;;;;;;4942274;29;20194;-71
2023/07/13 07:23:53;;;;;;;3.83;1.43;;;;;;;;;;4933462;29;20186;-72
2023/07/13 07:26:18;;;;;;;2.43;1.50;;;;;;;;;;4942014;28;20247;-73
2023/07/13 07:28:43;;;;;;;3.27;1.70;;;;;;;;;;4928871;29;20244;-72
2023/07/13 07:31:09;;;;;;;5.23;1.80;;;;;;;;;;4940781;29;20187;-71
2023/07/13 07:33:34;;;;;;;2.33;1.43;;;;;;;;;;4936449;28;20179;-72
2023/07/13 07:36:00;;;;;;;3.57;1.40;;;;;;;;;;4939310;29;20190;-71
2023/07/13 07:38:25;;;;;;;3.10;1.30;;;;;;;;;;4934772;29;20173;-72
2023/07/13 07:40:51;;;;;;;2.47;1.60;;;;;;;;;;4934374;29;20192;-72
2023/07/13 07:43:16;;;;;;;3.13;1.67;;;;;;;;;;4931925;29;20196;-72
2023/07/13 07:45:41;;;;;;;6.30;2.67;;;;;;;;;;4938062;29;20187;-72
2023/07/13 07:48:07;;;;;;;4.07;1.93;;;;;;;;;;4931378;29;20211;-72
2023/07/13 07:50:32;;;;;;;2.60;1.53;;;;;;;;;;4927764;29;20185;-72
2023/07/13 07:52:57;;;;;;;3.20;1.83;;;;;;;;;;4937372;29;20182;-72
2023/07/13 07:55:25;;;;;;;1.40;1.30;;;;;;;;;;4924321;29;20201;-72
2023/07/13 07:57:50;;;;;;;3.23;1.67;;;;;;;;;;4931647;29;20184;-72
2023/07/13 08:00:16;;;;;;;2.50;1.40;;;;;;;;;;4938182;29;20170;-72
2023/07/13 08:02:41;;;;;;;2.33;1.53;;;;;;;;;;4929153;29;20195;-72
2023/07/13 08:05:07;;;;;;;5.80;1.73;;;;;;;;;;4944944;29;20190;-72
2023/07/13 08:07:32;;;;;;;4.40;1.83;;;;;;;;;;4929072;29;20291;-74
2023/07/13 08:09:57;;;;;;;5.87;1.77;;;;;;;;;;4926022;29;20250;-71
2023/07/13 08:12:22;;;;;;;4.30;1.80;;;;;;;;;;4924921;29;20197;-71
2023/07/13 08:14:54;;;;;;;3.40;1.80;;;;;;;;;;4927334;29;20267;-71
2023/07/13 08:17:22;;;;;;;2.90;1.70;;;;;;;;;;4925310;29;20191;-72
2023/07/13 08:19:47;;;;;;;3.23;1.70;;;;;;;;;;4928972;29;20185;-71
2023/07/13 08:22:12;;;;;;;4.00;1.60;;;;;;;;;;4937761;29;20184;-71
2023/07/13 08:24:38;;;;;;;2.33;1.67;;;;;;;;;;4936738;29;20216;-71
2023/07/13 08:27:03;;;;;;;3.50;1.67;;;;;;;;;;4946825;29;20213;-71
2023/07/13 08:29:31;;;;;;;3.80;1.80;;;;;;;;;;4933534;29;20229;-71
2023/07/13 08:31:57;;;;;;;2.17;1.43;;;;;;;;;;4936067;28;20184;-71
2023/07/13 08:34:22;;;;;;;3.80;1.77;;;;;;;;;;4952332;28;20249;-74
2023/07/13 08:36:47;;;;;;;2.13;1.67;;;;;;;;;;4934614;29;20185;-74
2023/07/13 08:39:13;;;;;;;5.00;1.70;;;;;;;;;;4957233;28;20189;-72
2023/07/13 08:41:38;;;;;;;3.67;1.80;;;;;;;;;;4934484;29;20185;-72
2023/07/13 08:44:07;;;;;;;1.93;1.53;;;;;;;;;;4948392;29;20321;-72
2023/07/13 08:46:34;;;;;;;3.53;1.60;;;;;;;;;;4952848;28;20217;-72
2023/07/13 08:49:11;;;;;;;1.10;1.00;;;;;;;;;;4953459;28;20173;-71
2023/07/13 08:51:50;;;;;;;2.10;1.27;;;;;;;;;;4952717;29;20177;-72
2023/07/13 08:54:15;;;;;;;3.50;2.13;;;;;;;;;;4949853;29;20183;-71
2023/07/13 08:56:40;;;;;;;3.57;1.87;;;;;;;;;;4956936;28;20356;-72
2023/07/13 08:59:16;;;;;;;5.63;2.07;;;;;;;;;;4952069;28;20272;-71
2023/07/13 09:02:00;;;;;;;3.13;1.80;;;;;;;;;;4949249;28;20183;-72
2023/07/13 09:04:33;;;;;;;2.53;1.70;;;;;;;;;;4935952;29;20173;-72
2023/07/13 09:06:59;;;;;;;3.73;1.90;;;;;;;;;;4949859;29;20195;-72
2023/07/13 09:09:39;;;;;;;1.93;1.60;;;;;;;;;;4949173;28;20186;-72
2023/07/13 09:12:11;;;;;;;2.07;1.63;;;;;;;;;;4953374;28;20257;-72
2023/07/13 09:14:51;;;;;;;2.90;1.90;;;;;;;;;;4948362;28;20191;-72
2023/07/13 09:17:24;;;;;;;2.00;1.80;;;;;;;;;;4945730;29;20262;-72
2023/07/13 09:20:09;;;;;;;2.50;1.63;;;;;;;;;;4951778;28;20184;-72
2023/07/13 09:22:36;;;;;;;4.17;1.90;;;;;;;;;;4926871;29;20202;-72
2023/07/13 09:25:10;;;;;;;3.47;1.57;;;;;;;;;;4947018;29;20226;-72
2023/07/13 09:27:39;;;;;;;3.97;1.70;;;;;;;;;;4954672;28;20200;-72
2023/07/13 09:30:13;;;;;;;3.80;2.00;;;;;;;;;;4935835;29;20228;-72
2023/07/13 09:32:40;;;;;;;3.97;1.83;;;;;;;;;;4951227;28;20179;-72
2023/07/13 09:35:11;;;;;;;3.43;1.70;;;;;;;;;;4932197;28;20199;-72
2023/07/13 09:37:37;;;;;;;2.93;1.90;;;;;;;;;;4935259;29;20197;-72
2023/07/13 09:40:04;;;;;;;2.13;1.73;;;;;;;;;;4935075;29;20189;-72
2023/07/13 09:42:31;;;;;;;1.60;1.50;;;;;;;;;;4944022;28;20181;-71
2023/07/13 09:44:58;;;;;;;3.35;1.90;;;;;;;;;;4938974;28;20187;-72
2023/07/13 09:47:26;;;;;;;3.27;1.80;;;;;;;;;;4939891;28;20213;-72
2023/07/13 09:49:58;;;;;;;2.08;1.50;;;;;;;;;;4950695;28;20185;-71
2023/07/13 09:52:23;;;;;;;2.67;1.48;;;;;;;;;;4951898;28;20186;-72
2023/07/13 09:54:50;;;;;;;1.95;1.67;;;;;;;;;;4939260;29;20184;-72
2023/07/13 09:57:16;;;;;;;2.15;1.80;;;;;;;;;;4953400;28;20189;-72
2023/07/13 09:59:46;;;;;;;5.53;2.10;;;;;;;;;;4952611;28;20241;-72
2023/07/13 10:02:23;;;;;;;2.55;1.83;;;;;;;;;;4936766;28;20197;-72
2023/07/13 10:04:54;;;;;;;4.10;2.00;;;;;;;;;;4938705;29;20181;-72
2023/07/13 10:07:22;;;;;;;3.45;1.70;;;;;;;;;;4952448;29;20209;-72
2023/07/13 10:09:51;;;;;;;3.42;2.08;;;;;;;;;;4954423;29;20182;-72
2023/07/13 10:12:18;;;;;;;2.65;1.70;;;;;;;;;;4945310;29;20264;-72
2023/07/13 10:14:43;;;;;;;4.70;1.60;;;;;;;;;;4954948;28;20185;-71
2023/07/13 10:17:10;;;;;;;1.77;1.67;;;;;;;;;;4937808;29;20186;-72
2023/07/13 10:19:36;;;;;;;3.45;1.80;;;;;;;;;;4930928;29;20186;-72
2023/07/13 10:22:10;;;;;;;5.05;2.00;;;;;;;;;;4954080;28;20177;-72
2023/07/13 10:24:38;;;;;;;4.38;2.55;;;;;;;;;;4952116;29;20186;-72
2023/07/13 10:27:07;;;;;;;4.63;1.98;;;;;;;;;;4915597;29;20318;-72
2023/07/13 10:29:35;;;;;;;3.08;2.15;;;;;;;;;;4912163;29;20183;-72
2023/07/13 10:32:01;;;;;;;6.05;2.08;;;;;;;;;;4914558;29;20183;-72
2023/07/13 10:34:26;;;;;;;2.95;2.00;;;;;;;;;;4908309;29;20188;-72
2023/07/13 10:36:51;;;;;;;2.30;1.70;;;;;;;;;;4912312;29;20205;-72
2023/07/13 10:39:18;;;;;;;3.78;1.95;;;;;;;;;;4916591;29;20246;-72
2023/07/13 10:41:44;;;;;;;3.85;1.80;;;;;;;;;;4913575;29;20197;-71
2023/07/13 10:44:15;;;;;;;2.22;1.60;;;;;;;;;;4913772;29;20198;-72
2023/07/13 10:46:41;;;;;;;3.45;2.30;;;;;;;;;;4915347;29;20258;-72
2023/07/13 10:49:07;;;;;;;2.85;2.22;;;;;;;;;;4909237;29;20279;-72
2023/07/13 10:51:33;;;;;;;3.75;1.90;;;;;;;;;;4926065;29;20183;-72
2023/07/13 10:54:17;;;;;;;2.15;1.95;;;;;;;;;;4912907;29;20194;-72
2023/07/13 10:56:42;;;;;;;3.47;1.90;;;;;;;;;;4914388;29;20276;-74
2023/07/13 10:59:12;;;;;;;3.20;2.10;;;;;;;;;;4909021;29;20243;-74
2023/07/13 11:01:55;;;;;;;3.53;2.17;;;;;;;;;;4930798;29;20186;-74
2023/07/13 11:04:22;;;;;;;2.95;2.08;;;;;;;;;;4910658;29;20174;-74
2023/07/13 11:06:49;;;;;;;3.92;2.10;;;;;;;;;;4916621;29;20227;-74
2023/07/13 11:09:39;;;;;;;2.97;2.33;;;;;;;;;;4917343;29;20227;-74
2023/07/13 11:12:14;;;;;;;5.47;2.10;;;;;;;;;;4915377;29;20279;-74
2023/07/13 11:14:43;;;;;;;3.33;1.70;;;;;;;;;;4913198;29;20183;-74
2023/07/13 11:17:32;;;;;;;4.38;2.20;;;;;;;;;;4914708;29;20183;-74
2023/07/13 11:20:12;;;;;;;2.08;1.80;;;;;;;;;;4911671;29;20250;-74
2023/07/13 11:22:45;;;;;;;3.45;2.15;;;;;;;;;;4912615;29;20186;-75
2023/07/13 11:25:27;;;;;;;4.82;2.33;;;;;;;;;;4919954;29;20285;-74
2023/07/13 11:28:04;;;;;;;2.78;1.90;;;;;;;;;;4948032;29;20250;-76
2023/07/13 11:30:29;;;;;;;4.53;2.53;;;;;;;;;;4921227;29;20174;-74
2023/07/13 11:33:13;;;;;;;4.07;2.22;;;;;;;;;;4933811;29;20226;-74
2023/07/13 11:35:42;;;;;;;2.80;2.60;;;;;;;;;;4942605;28;20179;-74
2023/07/13 11:38:27;;;;;;;4.00;2.38;;;;;;;;;;4932279;29;20182;-75
2023/07/13 11:40:56;;;;;;;2.65;2.13;;;;;;;;;;4927064;29;20189;-75
2023/07/13 11:43:25;;;;;;;4.80;2.58;;;;;;;;;;4945877;29;20183;-75
2023/07/13 11:45:51;;;;;;;2.72;1.80;;;;;;;;;;4932053;29;20245;-75
2023/07/13 11:48:31;;;;;;;4.47;1.98;;;;;;;;;;4933185;29;20301;-74
2023/07/13 11:51:03;;;;;;;8.88;2.45;;;;;;;;;;4934140;29;20188;-75
2023/07/13 11:53:28;;;;;;;3.30;1.95;;;;;;;;;;4927441;29;20238;-75
2023/07/13 11:55:54;;;;;;;3.20;1.60;;;;;;;;;;4941861;29;20291;-75
2023/07/13 11:58:23;;;;;;;2.35;2.00;;;;;;;;;;4925990;29;20238;-75
2023/07/13 12:00:48;;;;;;;3.30;2.08;;;;;;;;;;4930654;29;20179;-75
2023/07/13 12:03:17;;;;;;;2.85;2.22;;;;;;;;;;4933652;29;20188;-75
2023/07/13 12:05:57;;;;;;;3.15;1.70;;;;;;;;;;4935284;29;20261;-74
2023/07/13 12:08:22;;;;;;;2.00;1.75;;;;;;;;;;4934580;29;20272;-75
2023/07/13 12:10:47;;;;;;;3.80;2.13;;;;;;;;;;4949672;29;20174;-75
2023/07/13 12:13:13;;;;;;;2.88;1.90;;;;;;;;;;4934591;29;20254;-75
2023/07/13 12:15:40;;;;;;;2.85;1.75;;;;;;;;;;4934223;29;20253;-75
2023/07/13 12:18:34;;;;;;;3.30;1.90;;;;;;;;;;4929489;29;20189;-75
2023/07/13 12:21:00;;;;;;;2.05;1.80;;;;;;;;;;4926168;29;20197;-75
2023/07/13 12:23:25;;;;;;;2.88;1.88;;;;;;;;;;4934541;29;20213;-75
2023/07/13 12:25:51;;;;;;;3.45;2.05;;;;;;;;;;4938164;28;20235;-75
2023/07/13 12:28:31;;;;;;;3.35;1.75;;;;;;;;;;4952970;28;20221;-75
2023/07/13 12:31:00;;;;;;;3.10;1.88;;;;;;;;;;4932161;28;20180;-75
2023/07/13 12:33:28;;;;;;;2.47;1.70;;;;;;;;;;4950614;29;20189;-75
2023/07/13 12:35:53;;;;;;;2.88;1.95;;;;;;;;;;4936331;29;20177;-74
2023/07/13 12:38:21;;;;;;;5.43;2.40;;;;;;;;;;4935286;29;20264;-75
2023/07/13 12:40:49;;;;;;;3.00;2.20;;;;;;;;;;4953495;29;20244;-75
2023/07/13 12:43:15;;;;;;;3.30;1.88;;;;;;;;;;4951456;29;20236;-75
2023/07/13 12:45:54;;;;;;;2.60;1.55;;;;;;;;;;4933373;29;20177;-75
2023/07/13 12:48:20;;;;;;;2.38;1.77;;;;;;;;;;4942407;29;20256;-75
2023/07/13 12:50:50;;;;;;;4.43;2.30;;;;;;;;;;4950161;29;20239;-75
2023/07/13 12:53:35;;;;;;;11.25;2.95;;;;;;;;;;4946519;29;20170;-74
2023/07/13 12:56:02;;;;;;;4.78;2.17;;;;;;;;;;4952141;29;20339;-75
2023/07/13 12:58:27;;;;;;;2.90;2.05;;;;;;;;;;4951067;29;20182;-75
2023/07/13 13:00:54;;;;;;;2.20;1.88;;;;;;;;;;4935740;28;20193;-75
2023/07/13 13:03:22;;;;;;;3.50;1.95;;;;;;;;;;4951502;28;20181;-75
2023/07/13 13:05:47;;;;;;;3.47;1.77;;;;;;;;;;4952434;29;20176;-75
2023/07/13 13:08:12;;;;;;;1.92;1.80;;;;;;;;;;4949712;28;20213;-75
2023/07/13 13:10:38;;;;;;;2.47;1.85;;;;;;;;;;4949614;28;20182;-75
2023/07/13 13:13:03;;;;;;;2.28;1.70;;;;;;;;;;4952038;29;20276;-75
2023/07/13 13:15:29;;;;;;;4.40;1.80;;;;;;;;;;4947263;29;20182;-75
2023/07/13 13:17:55;;;;;;;1.65;1.55;;;;;;;;;;4951367;28;20192;-75
2023/07/13 13:20:21;;;;;;;3.03;1.67;;;;;;;;;;4934501;29;20189;-75
2023/07/13 13:22:46;;;;;;;4.60;1.95;;;;;;;;;;4948861;29;20232;-75
2023/07/13 13:25:11;;;;;;;2.67;1.65;;;;;;;;;;4947208;28;20223;-75
2023/07/13 13:27:37;;;;;;;2.25;1.70;;;;;;;;;;4927846;29;20230;-75
2023/07/13 13:30:02;;;;;;;3.38;2.53;;;;;;;;;;4926776;29;20178;-75
2023/07/13 13:32:28;;;;;;;4.97;1.95;;;;;;;;;;4940484;29;20175;-74
2023/07/13 13:34:53;;;;;;;3.45;1.88;;;;;;;;;;4935475;29;20193;-75
2023/07/13 13:37:21;;;;;;;5.00;2.38;;;;;;;;;;4948627;29;20192;-75
2023/07/13 13:39:46;;;;;;;2.60;2.00;;;;;;;;;;4923852;29;20190;-75
2023/07/13 13:42:12;;;;;;;4.05;1.75;;;;;;;;;;4928114;29;20201;-75
2023/07/13 13:44:37;;;;;;;3.97;1.77;;;;;;;;;;4929869;29;20186;-75
2023/07/13 13:47:03;;;;;;;2.80;1.73;;;;;;;;;;4931948;29;20344;-75
2023/07/13 13:49:29;;;;;;;2.55;1.90;;;;;;;;;;4932053;29;20178;-74
2023/07/13 13:51:54;;;;;;;3.65;2.00;;;;;;;;;;4932663;29;20220;-74
2023/07/13 13:54:21;;;;;;;4.50;2.28;;;;;;;;;;4933408;29;20179;-74
2023/07/13 13:56:47;;;;;;;2.40;2.20;;;;;;;;;;4928351;29;20187;-74
2023/07/13 13:59:13;;;;;;;4.47;1.95;;;;;;;;;;4930876;29;20186;-74
2023/07/13 14:01:39;;;;;;;3.33;2.38;;;;;;;;;;4928704;29;20178;-74
2023/07/13 14:04:05;;;;;;;5.30;2.10;;;;;;;;;;4924536;29;20186;-75
2023/07/13 14:06:34;;;;;;;3.75;1.88;;;;;;;;;;4931278;29;20198;-75
2023/07/13 14:09:00;;;;;;;3.05;1.88;;;;;;;;;;4931933;29;20182;-74
2023/07/13 14:11:25;;;;;;;2.35;1.60;;;;;;;;;;4933291;29;20182;-74
2023/07/13 14:13:52;;;;;;;3.58;1.95;;;;;;;;;;4932763;29;20202;-74
2023/07/13 14:16:22;;;;;;;2.20;1.75;;;;;;;;;;4941683;28;20175;-75
2023/07/13 14:18:47;;;;;;;3.33;1.70;;;;;;;;;;4945666;28;20234;-75
2023/07/13 14:21:14;;;;;;;6.15;2.10;;;;;;;;;;4930090;29;20175;-74
2023/07/13 14:23:39;;;;;;;3.17;1.80;;;;;;;;;;4924891;29;20191;-75
2023/07/13 14:26:12;;;;;;;1.77;1.65;;;;;;;;;;4938407;29;20228;-74
2023/07/13 14:28:38;;;;;;;4.22;2.10;;;;;;;;;;4930138;29;20205;-75
2023/07/13 14:31:04;;;;;;;4.60;2.55;;;;;;;;;;4945995;28;20182;-75
2023/07/13 14:39:35;;;;;;;1.95;1.75;;;;;;;;;;4953322;29;20273;-75
2023/07/13 14:45:03;;;;;;;3.85;1.95;;;;;;;;;;4952495;28;20204;-74
2023/07/13 14:47:28;;;;;;;3.47;2.22;;;;;;;;;;4937107;29;20202;-74
2023/07/13 14:55:26;;;;;;;2.22;1.90;;;;;;;;;;4933415;29;20316;-75
2023/07/13 14:57:52;;;;;;;4.35;2.13;;;;;;;;;;4914928;29;20182;-75